Time;durP1;ratioP1;P1;durP2;ratioP2;P2;SDS_P1;SDS_P2;PMS_P1;PMS_P2;Temp;Humidity;BMP_temperature;BMP_pressure;BME280_temperature;BME280_humidity;BME280_pressure;Samples;Min_cycle;Max_cycle;Signal;HPM_P1;HPM_P2
2020/12/27 00:01:03;;;;;;;18.47;9.57;;;;;;;-0.50;68.85;100435.30;118551;1148;104548;-71
2020/12/27 00:03:31;;;;;;;16.23;8.13;;;;;;;-0.52;68.43;100437.15;118548;1147;104475;-70
2020/12/27 00:06:00;;;;;;;15.40;6.77;;;;;;;-0.52;68.88;100442.39;118817;1147;104554;-70
2020/12/27 00:08:28;;;;;;;15.40;8.07;;;;;;;-0.54;68.59;100434.63;118629;1146;104559;-71
2020/12/27 00:10:56;;;;;;;16.57;8.43;;;;;;;-0.55;68.52;100435.55;118319;1147;104619;-73
2020/12/27 00:13:24;;;;;;;16.27;7.60;;;;;;;-0.57;69.18;100421.67;118301;1147;104562;-71
2020/12/27 00:15:52;;;;;;;17.85;8.10;;;;;;;-0.61;68.54;100425.38;118781;1147;104495;-71
2020/12/27 00:18:20;;;;;;;12.87;6.50;;;;;;;-0.60;68.44;100419.19;118861;1148;104636;-71
2020/12/27 00:20:48;;;;;;;12.50;6.47;;;;;;;-0.57;68.76;100432.16;118732;1146;104506;-72
2020/12/27 00:23:16;;;;;;;15.35;7.35;;;;;;;-0.60;68.69;100429.67;118863;1147;104895;-72
2020/12/27 00:25:44;;;;;;;14.00;6.55;;;;;;;-0.61;68.58;100428.84;118909;1147;104550;-71
2020/12/27 00:28:13;;;;;;;16.65;7.85;;;;;;;-0.65;68.52;100432.54;119012;1148;104538;-71
2020/12/27 00:30:41;;;;;;;17.30;7.83;;;;;;;-0.68;68.90;100430.06;118904;1147;104578;-71
2020/12/27 00:33:09;;;;;;;18.55;7.60;;;;;;;-0.67;68.53;100428.31;118718;1147;104476;-70
2020/12/27 00:35:38;;;;;;;13.07;5.83;;;;;;;-0.72;69.12;100423.28;118602;1147;104556;-71
2020/12/27 00:38:06;;;;;;;16.27;7.67;;;;;;;-0.73;69.28;100429.47;118879;1147;104544;-70
2020/12/27 00:40:34;;;;;;;16.67;7.87;;;;;;;-0.75;68.86;100419.97;118806;1147;104556;-70
2020/12/27 00:43:05;;;;;;;15.67;7.67;;;;;;;-0.76;69.07;100418.28;118842;1147;104557;-71
2020/12/27 00:45:33;;;;;;;15.88;7.60;;;;;;;-0.74;68.95;100413.81;118816;1147;104479;-70
2020/12/27 00:48:02;;;;;;;15.73;7.53;;;;;;;-0.76;68.87;100421.74;118699;1147;104604;-69
2020/12/27 00:50:30;;;;;;;14.87;6.87;;;;;;;-0.75;68.68;100419.97;118499;1147;104577;-70
2020/12/27 00:52:58;;;;;;;18.13;8.27;;;;;;;-0.77;69.03;100416.58;118714;1146;105014;-70
2020/12/27 00:55:26;;;;;;;14.80;7.73;;;;;;;-0.76;69.19;100408.64;118819;1147;104457;-71
2020/12/27 00:57:55;;;;;;;15.23;7.97;;;;;;;-0.78;68.47;100405.25;118678;1147;104617;-70
2020/12/27 01:00:23;;;;;;;17.20;7.37;;;;;;;-0.81;69.12;100400.16;118801;1148;104582;-69
2020/12/27 01:02:51;;;;;;;13.67;6.80;;;;;;;-0.80;69.08;100389.61;118835;1147;104562;-70
2020/12/27 01:05:38;;;;;;;18.97;8.87;;;;;;;-0.80;68.44;100392.23;118814;1148;104538;-70
2020/12/27 01:08:07;;;;;;;16.67;7.73;;;;;;;-0.82;68.65;100383.59;118661;1147;105119;-69
2020/12/27 01:10:35;;;;;;;15.85;7.80;;;;;;;-0.85;68.80;100388.14;118512;1147;104588;-70
2020/12/27 01:13:04;;;;;;;16.80;7.27;;;;;;;-0.85;69.19;100378.53;118756;1147;104480;-70
2020/12/27 01:15:34;;;;;;;14.20;7.50;;;;;;;-0.85;68.74;100382.90;118651;1147;104450;-70
2020/12/27 01:18:09;;;;;;;15.53;7.70;;;;;;;-0.88;68.64;100383.08;118711;1147;104655;-70
2020/12/27 01:20:40;;;;;;;15.43;7.07;;;;;;;-0.89;69.11;100374.34;118254;1148;104471;-69
2020/12/27 01:23:09;;;;;;;13.83;6.93;;;;;;;-0.91;69.15;100357.86;118761;1147;104453;-69
2020/12/27 01:25:40;;;;;;;15.10;7.17;;;;;;;-0.92;68.30;100364.04;118811;1148;104472;-69
2020/12/27 01:28:08;;;;;;;14.20;7.40;;;;;;;-0.91;69.04;100357.86;118640;1147;104825;-70
2020/12/27 01:30:37;;;;;;;14.13;7.60;;;;;;;-0.90;68.25;100345.63;118725;1147;104556;-70
2020/12/27 01:33:06;;;;;;;13.70;7.07;;;;;;;-0.90;69.20;100333.38;118851;1147;104541;-70
2020/12/27 01:35:50;;;;;;;14.00;7.30;;;;;;;-0.85;68.25;100341.86;118841;1147;104465;-69
2020/12/27 01:38:19;;;;;;;17.03;8.37;;;;;;;-0.87;69.15;100332.36;118938;1147;104595;-69
2020/12/27 01:40:47;;;;;;;19.37;9.03;;;;;;;-0.87;68.85;100332.36;118466;1147;104549;-70
2020/12/27 01:43:17;;;;;;;25.17;11.43;;;;;;;-0.88;69.05;100326.28;118830;1147;104516;-70
2020/12/27 01:45:47;;;;;;;27.73;11.97;;;;;;;-0.88;69.08;100336.77;118677;1147;104546;-70
2020/12/27 01:48:17;;;;;;;51.77;21.57;;;;;;;-0.91;69.06;100331.67;118613;1147;104614;-70
2020/12/27 01:50:48;;;;;;;39.80;16.43;;;;;;;-0.94;69.13;100331.84;118369;1147;104675;-71
2020/12/27 01:53:27;;;;;;;56.67;22.17;;;;;;;-0.97;69.00;100320.67;118582;1147;105414;-71
2020/12/27 01:56:02;;;;;;;52.37;22.47;;;;;;;-0.98;69.13;100322.45;118854;1148;104614;-71
2020/12/27 01:58:34;;;;;;;46.67;20.13;;;;;;;-1.01;68.17;100322.59;118662;1147;104620;-72
2020/12/27 02:01:08;;;;;;;35.80;15.10;;;;;;;-1.02;68.36;100313.02;118822;1147;104538;-71
2020/12/27 02:03:43;;;;;;;43.47;20.23;;;;;;;-0.99;68.88;100312.88;118790;1147;104662;-70
2020/12/27 02:06:35;;;;;;;55.53;25.37;;;;;;;-1.02;68.76;100303.42;118590;1147;104551;-72
2020/12/27 02:09:11;;;;;;;46.40;22.77;;;;;;;-1.03;68.92;100298.25;118704;1148;104722;-70
2020/12/27 02:11:44;;;;;;;62.40;27.20;;;;;;;-1.04;69.27;100301.78;118805;1148;104521;-71
2020/12/27 02:14:13;;;;;;;50.90;23.50;;;;;;;-1.08;69.20;100293.27;118551;1147;104592;-72
2020/12/27 02:16:42;;;;;;;52.75;23.00;;;;;;;-1.08;68.87;100297.63;118809;1147;104903;-69
2020/12/27 02:19:29;;;;;;;62.87;28.00;;;;;;;-1.09;68.49;100296.80;118862;1148;104561;-70
2020/12/27 02:22:01;;;;;;;65.22;28.40;;;;;;;-1.10;68.40;100292.47;118558;1147;104551;-69
2020/12/27 02:24:49;;;;;;;33.80;16.43;;;;;;;-1.13;69.27;100283.95;118643;1147;104511;-70
2020/12/27 02:27:19;;;;;;;40.33;18.40;;;;;;;-1.12;69.33;100277.77;118845;1147;104563;-69
2020/12/27 02:29:48;;;;;;;66.63;29.73;;;;;;;-1.10;69.26;100284.61;118806;1147;104613;-69
2020/12/27 02:32:17;;;;;;;46.67;21.47;;;;;;;-1.10;68.68;100289.01;118606;1148;104513;-70
2020/12/27 02:34:46;;;;;;;71.20;31.10;;;;;;;-1.09;68.73;100275.00;118499;1147;105148;-70
2020/12/27 02:37:15;;;;;;;51.60;24.33;;;;;;;-1.10;68.47;100270.67;118786;1147;104571;-71
2020/12/27 02:39:56;;;;;;;34.93;16.10;;;;;;;-1.13;68.98;100266.45;118322;1147;104604;-70
2020/12/27 02:42:24;;;;;;;46.55;20.75;;;;;;;-1.13;68.59;100258.59;118827;1148;104476;-73
2020/12/27 02:45:11;;;;;;;41.80;18.60;;;;;;;-1.14;69.08;100258.67;118868;1147;104464;-70
2020/12/27 02:48:12;;;;;;;36.97;17.13;;;;;;;-1.17;69.37;100266.67;118903;1147;104527;-71
2020/12/27 02:51:01;;;;;;;61.10;27.67;;;;;;;-1.19;68.00;100264.16;118837;1148;104605;-71
2020/12/27 02:53:30;;;;;;;55.40;24.83;;;;;;;-1.19;68.64;100261.54;118522;1148;104584;-70
2020/12/27 02:55:58;;;;;;;87.63;37.93;;;;;;;-1.20;68.68;100270.30;118815;1147;104560;-71
2020/12/27 02:58:27;;;;;;;52.53;23.73;;;;;;;-1.18;68.29;100271.06;118636;1147;104476;-71
2020/12/27 03:00:57;;;;;;;61.97;27.17;;;;;;;-1.20;68.53;100268.52;118374;1147;104620;-71
2020/12/27 03:03:25;;;;;;;99.27;40.40;;;;;;;-1.22;68.80;100265.14;118877;1147;104565;-71
2020/12/27 03:06:02;;;;;;;49.50;22.30;;;;;;;-1.22;69.06;100269.53;118905;1146;104493;-72
2020/12/27 03:08:31;;;;;;;62.47;26.07;;;;;;;-1.22;69.10;100275.61;118950;1148;104541;-71
2020/12/27 03:11:19;;;;;;;80.70;34.53;;;;;;;-1.26;68.60;100273.23;118856;1146;104582;-71
2020/12/27 03:13:49;;;;;;;48.80;22.97;;;;;;;-1.29;68.95;100270.76;118525;1147;104581;-72
2020/12/27 03:16:18;;;;;;;67.55;29.10;;;;;;;-1.33;68.14;100270.06;118499;1147;104454;-72
2020/12/27 03:19:04;;;;;;;46.07;19.73;;;;;;;-1.35;68.01;100265.84;118442;1147;104487;-72
2020/12/27 03:22:01;;;;;;;64.35;28.90;;;;;;;-1.37;69.21;100260.67;118179;1148;104559;-71
2020/12/27 03:24:48;;;;;;;47.37;22.57;;;;;;;-1.36;68.49;100259.77;118777;1147;104617;-71
2020/12/27 03:27:16;;;;;;;70.30;32.05;;;;;;;-1.37;69.27;100258.05;118445;1147;104463;-71
2020/12/27 03:29:45;;;;;;;74.05;34.45;;;;;;;-1.39;68.95;100258.16;118542;1147;104553;-71
2020/12/27 03:32:16;;;;;;;;;;;;;;;-1.36;69.20;100254.53;118897;1148;104527;-71
2020/12/27 03:34:49;;;;;;;50.75;22.75;;;;;;;-1.38;69.38;100256.38;118457;1147;104547;-71
2020/12/27 03:37:17;;;;;;;78.50;37.80;;;;;;;-1.39;68.66;100247.69;118759;1147;104538;-71
2020/12/27 03:40:07;;;;;;;137.45;50.45;;;;;;;-1.39;69.01;100247.69;118601;1147;104602;-70
2020/12/27 03:43:00;;;;;;;80.73;33.43;;;;;;;-1.37;68.29;100244.13;118892;1147;104716;-71
2020/12/27 03:45:29;;;;;;;58.47;24.37;;;;;;;-1.38;68.66;100238.06;118829;1147;104576;-68
2020/12/27 03:48:08;;;;;;;114.00;47.87;;;;;;;-1.36;68.35;100227.52;118801;1147;104940;-69
2020/12/27 03:50:49;;;;;;;135.55;55.55;;;;;;;-1.37;68.17;100226.65;118374;1148;104748;-70
2020/12/27 03:53:18;;;;;;;167.85;63.05;;;;;;;-1.39;68.57;100220.64;118271;1147;105053;-70
2020/12/27 03:56:06;;;;;;;121.70;46.60;;;;;;;-1.38;69.24;100227.59;118821;1147;104636;-71
2020/12/27 03:58:40;;;;;;;64.63;30.27;;;;;;;-1.37;68.63;100223.19;118842;1147;105684;-70
2020/12/27 04:01:28;;;;;;;85.70;38.00;;;;;;;-1.37;67.95;100218.80;118869;1148;104498;-70
2020/12/27 04:03:56;;;;;;;73.27;36.47;;;;;;;-1.36;67.96;100210.03;118753;1147;104630;-70
2020/12/27 04:06:25;;;;;;;66.13;31.80;;;;;;;-1.34;67.94;100212.58;118860;1146;104511;-70
2020/12/27 04:09:02;;;;;;;103.67;62.33;;;;;;;-1.33;67.99;100209.86;118886;1147;104484;-72
2020/12/27 04:11:30;;;;;;;89.60;47.97;;;;;;;-1.30;68.27;100209.71;118910;1148;104454;-72
2020/12/27 04:13:58;;;;;;;81.80;41.67;;;;;;;-1.32;68.40;100201.09;118818;1147;104675;-72
2020/12/27 04:16:26;;;;;;;67.07;36.67;;;;;;;-1.34;68.81;100192.48;118442;1148;104565;-72
2020/12/27 04:18:55;;;;;;;100.07;54.83;;;;;;;-1.40;68.80;100188.41;118884;1147;104527;-73
2020/12/27 04:21:35;;;;;;;83.03;44.87;;;;;;;-1.43;68.35;100185.09;118750;1147;104563;-71
2020/12/27 04:24:16;;;;;;;102.55;62.30;;;;;;;-1.42;68.07;100184.18;118823;1147;104589;-70
2020/12/27 04:26:47;;;;;;;92.80;50.87;;;;;;;-1.43;67.91;100166.77;118394;1148;104556;-70
2020/12/27 04:29:16;;;;;;;58.20;31.77;;;;;;;-1.44;68.41;100165.09;118402;1147;104655;-70
2020/12/27 04:31:51;;;;;;;66.63;36.47;;;;;;;-1.45;67.90;100166.01;118852;1147;104540;-71
2020/12/27 04:34:31;;;;;;;74.25;39.25;;;;;;;-1.46;68.08;100159.94;118915;1147;104597;-72
2020/12/27 04:36:59;;;;;;;44.40;24.67;;;;;;;-1.47;67.91;100170.47;118565;1147;104561;-71
2020/12/27 04:39:30;;;;;;;115.03;64.50;;;;;;;-1.49;67.76;100170.55;118506;1147;104474;-71
2020/12/27 04:42:00;;;;;;;143.80;77.70;;;;;;;-1.47;68.42;100170.47;118755;1147;104472;-71
2020/12/27 04:44:35;;;;;;;144.73;79.70;;;;;;;-1.52;68.13;100162.87;118889;1147;104634;-71
2020/12/27 04:47:06;;;;;;;53.55;28.45;;;;;;;-1.52;68.97;100178.58;118964;1147;104588;-71
2020/12/27 04:49:46;;;;;;;63.23;32.23;;;;;;;-1.53;68.54;100181.27;118923;1148;104490;-71
2020/12/27 04:52:18;;;;;;;56.13;26.43;;;;;;;-1.53;68.12;100178.64;118949;1147;104553;-72
2020/12/27 04:55:13;;;;;;;57.97;27.13;;;;;;;-1.55;67.66;100183.95;119000;1147;104633;-71
2020/12/27 04:57:57;;;;;;;53.60;25.45;;;;;;;-1.56;67.88;100182.24;118691;1147;104467;-71
2020/12/27 05:00:29;;;;;;;50.47;24.43;;;;;;;-1.59;67.96;100172.79;118862;1147;104438;-70
2020/12/27 05:03:27;;;;;;;70.07;38.87;;;;;;;-1.57;68.17;100169.27;118523;1147;104590;-72
2020/12/27 05:05:57;;;;;;;44.33;23.03;;;;;;;-1.57;68.84;100172.72;118400;1147;104537;-69
2020/12/27 05:08:25;;;;;;;47.57;24.70;;;;;;;-1.56;68.07;100173.55;118734;1147;104573;-70
2020/12/27 05:11:02;;;;;;;48.00;25.23;;;;;;;-1.57;67.99;100172.72;118836;1147;104951;-71
2020/12/27 05:13:32;;;;;;;47.77;25.37;;;;;;;-1.56;68.39;100178.78;118823;1148;104464;-70
2020/12/27 05:16:30;;;;;;;79.47;42.07;;;;;;;-1.57;68.63;100174.49;118811;1147;104691;-70
2020/12/27 05:19:00;;;;;;;157.07;78.50;;;;;;;-1.59;67.83;100167.55;118678;1145;104537;-70
2020/12/27 05:21:37;;;;;;;94.47;49.13;;;;;;;-1.55;68.76;100163.02;118819;1148;104533;-70
2020/12/27 05:24:07;;;;;;;84.83;43.30;;;;;;;-1.58;67.86;100163.16;118783;1148;104550;-70
2020/12/27 05:26:47;;;;;;;55.70;28.20;;;;;;;-1.59;68.15;100161.48;118815;1148;104594;-70
2020/12/27 05:29:43;;;;;;;58.30;32.10;;;;;;;-1.61;68.62;100153.70;118766;1148;104497;-71
2020/12/27 05:32:34;;;;;;;62.37;35.90;;;;;;;-1.62;67.55;100152.03;118568;1147;104492;-73
2020/12/27 05:35:22;;;;;;;47.53;25.77;;;;;;;-1.64;67.87;100143.39;118835;1147;104542;-72
2020/12/27 05:38:00;;;;;;;43.67;23.73;;;;;;;-1.66;68.44;100142.63;118744;1147;104511;-72
2020/12/27 05:40:47;;;;;;;84.63;43.80;;;;;;;-1.63;68.14;100144.25;118513;1147;104594;-71
2020/12/27 05:43:21;;;;;;;69.13;39.13;;;;;;;-1.64;68.60;100130.30;118860;1147;104509;-72
2020/12/27 05:46:20;;;;;;;70.30;35.40;;;;;;;-1.66;68.30;100124.30;118614;1147;104475;-72
2020/12/27 05:48:49;;;;;;;61.00;32.85;;;;;;;-1.69;67.31;100123.64;118485;1147;104688;-72
2020/12/27 05:51:22;;;;;;;67.97;35.90;;;;;;;-1.70;68.24;100133.23;118993;1147;104543;-72
2020/12/27 05:53:53;;;;;;;56.37;28.57;;;;;;;-1.69;67.71;100134.95;118938;1148;104548;-72
2020/12/27 05:56:26;;;;;;;57.40;30.65;;;;;;;-1.71;68.40;100131.56;118944;1147;104532;-74
2020/12/27 05:58:59;;;;;;;58.60;32.13;;;;;;;-1.73;68.62;100136.03;119003;1147;104607;-73
2020/12/27 06:01:31;;;;;;;60.30;34.67;;;;;;;-1.75;68.25;100134.39;118944;1147;104541;-74
2020/12/27 06:04:04;;;;;;;52.10;30.30;;;;;;;-1.76;68.86;100125.71;118917;1147;104559;-74
2020/12/27 06:07:05;;;;;;;37.30;20.40;;;;;;;-1.80;68.90;100124.17;118898;1148;104562;-74
2020/12/27 06:10:00;;;;;;;185.10;75.10;;;;;;;-1.79;68.37;100123.23;118715;1148;104561;-74
2020/12/27 06:12:47;;;;;;;75.50;36.33;;;;;;;-1.76;68.11;100111.80;118853;1147;104477;-74
2020/12/27 06:15:26;;;;;;;193.57;94.70;;;;;;;-1.76;67.62;100117.02;118177;1148;105270;-73
2020/12/27 06:18:24;;;;;;;68.47;38.57;;;;;;;-1.79;68.01;100099.70;118549;1148;104597;-73
2020/12/27 06:21:10;;;;;;;1298.57;630.03;;;;;;;-1.76;67.64;100101.33;118665;1145;104613;-72
2020/12/27 06:23:56;;;;;;;341.90;154.00;;;;;;;-1.72;68.36;100108.93;118740;1147;104504;-72
2020/12/27 06:26:26;;;;;;;139.55;66.65;;;;;;;-1.69;68.73;100106.17;118553;1148;105172;-73
2020/12/27 06:29:09;;;;;;;108.80;54.40;;;;;;;-1.67;67.71;100113.95;118649;1146;104532;-72
2020/12/27 06:31:49;;;;;;;82.37;44.03;;;;;;;-1.65;67.51;100105.08;118991;1148;104605;-72
2020/12/27 06:34:44;;;;;;;77.50;47.20;;;;;;;-1.65;68.27;100117.33;118965;1146;104955;-72
2020/12/27 06:37:17;;;;;;;52.50;32.20;;;;;;;-1.66;68.20;100107.77;118964;1147;104487;-72
2020/12/27 06:40:04;;;;;;;56.30;36.60;;;;;;;-1.67;67.58;100101.70;118933;1147;104837;-72
2020/12/27 06:43:16;;;;;;;62.87;42.53;;;;;;;-1.70;67.59;100101.84;118890;1147;104583;-72
2020/12/27 06:45:47;;;;;;;46.58;30.80;;;;;;;-1.71;67.00;100105.41;118954;1147;104454;-72
2020/12/27 06:48:34;;;;;;;36.63;23.03;;;;;;;-1.72;67.74;100101.08;118960;1147;104522;-73
2020/12/27 06:51:42;;;;;;;37.45;24.00;;;;;;;-1.72;68.63;100095.02;118808;1147;104480;-73
2020/12/27 06:54:43;;;;;;;33.37;22.03;;;;;;;-1.74;67.89;100084.63;119062;1147;104626;-72
2020/12/27 06:57:40;;;;;;;69.80;46.97;;;;;;;-1.79;67.95;100073.55;118468;1145;104519;-72
2020/12/27 07:00:24;;;;;;;59.77;39.87;;;;;;;-1.77;68.28;100079.57;119019;1147;104473;-71
2020/12/27 07:03:09;;;;;;;56.57;36.10;;;;;;;-1.78;68.17;100067.41;118644;1147;104473;-72
2020/12/27 07:05:39;;;;;;;42.20;26.67;;;;;;;-1.80;68.29;100071.87;118921;1148;104576;-72
2020/12/27 07:08:10;;;;;;;41.03;24.87;;;;;;;-1.77;67.37;100076.95;118876;1147;104661;-72
2020/12/27 07:10:40;;;;;;;43.70;26.87;;;;;;;-1.75;67.23;100079.47;118543;1147;104541;-72
2020/12/27 07:13:11;;;;;;;48.73;32.70;;;;;;;-1.72;67.61;100072.31;118717;1148;104457;-72
2020/12/27 07:15:50;;;;;;;32.13;18.73;;;;;;;-1.67;67.60;100074.70;118977;1147;104913;-72
2020/12/27 07:18:23;;;;;;;27.50;16.50;;;;;;;-1.69;66.66;100072.16;118561;1148;104618;-73
2020/12/27 07:20:54;;;;;;;33.10;17.43;;;;;;;-1.69;66.92;100082.62;118962;1148;104549;-72
2020/12/27 07:23:25;;;;;;;32.63;17.80;;;;;;;-1.65;67.44;100075.47;118600;1147;104487;-72
2020/12/27 07:25:55;;;;;;;28.20;16.23;;;;;;;-1.62;68.13;100081.39;118533;1148;104512;-72
2020/12/27 07:28:25;;;;;;;37.67;20.87;;;;;;;-1.57;67.26;100069.84;118468;1147;104508;-73
2020/12/27 07:30:58;;;;;;;26.23;12.60;;;;;;;-1.56;68.08;100071.52;118538;1147;104454;-73
2020/12/27 07:33:30;;;;;;;26.80;14.73;;;;;;;-1.53;67.36;100068.75;118523;1147;104530;-73
2020/12/27 07:36:03;;;;;;;30.77;17.10;;;;;;;-1.48;67.03;100069.33;118993;1147;104641;-73
2020/12/27 07:38:59;;;;;;;49.05;23.00;;;;;;;-1.45;66.93;100056.09;118904;1147;104563;-72
2020/12/27 07:41:29;;;;;;;35.03;16.50;;;;;;;-1.40;66.68;100056.70;118489;1147;104552;-72
2020/12/27 07:43:58;;;;;;;34.77;19.47;;;;;;;-1.40;66.99;100061.94;118517;1147;104476;-70
2020/12/27 07:46:27;;;;;;;24.50;12.45;;;;;;;-1.39;66.76;100055.76;118851;1147;104494;-72
2020/12/27 07:48:56;;;;;;;23.63;11.87;;;;;;;-1.37;66.79;100066.99;118544;1147;104524;-72
2020/12/27 07:51:25;;;;;;;20.63;10.63;;;;;;;-1.31;66.79;100064.08;118514;1147;104501;-71
2020/12/27 07:53:54;;;;;;;19.97;10.87;;;;;;;-1.28;66.97;100061.27;118768;1147;104486;-71
2020/12/27 07:56:24;;;;;;;20.83;10.80;;;;;;;-1.26;66.32;100043.70;118911;1147;104466;-71
2020/12/27 07:58:54;;;;;;;22.20;10.87;;;;;;;-1.23;67.43;100040.10;118782;1147;104548;-70
2020/12/27 08:01:24;;;;;;;22.20;10.40;;;;;;;-1.18;67.16;100040.67;118559;1148;104911;-70
2020/12/27 08:03:57;;;;;;;18.80;9.73;;;;;;;-1.12;67.20;100034.26;118307;1148;104479;-71
2020/12/27 08:06:28;;;;;;;22.07;10.40;;;;;;;-1.10;67.21;100042.88;118615;1148;104583;-71
2020/12/27 08:09:04;;;;;;;25.57;12.70;;;;;;;-1.11;67.22;100031.56;118903;1147;104957;-71
2020/12/27 08:11:33;;;;;;;19.80;10.23;;;;;;;-1.04;66.98;100026.81;118601;1147;104479;-71
2020/12/27 08:14:03;;;;;;;21.20;10.55;;;;;;;-1.00;67.09;100010.87;118573;1147;104453;-71
2020/12/27 08:16:32;;;;;;;20.20;10.20;;;;;;;-0.97;66.24;100001.16;118545;1147;104855;-70
2020/12/27 08:19:08;;;;;;;18.55;9.10;;;;;;;-0.94;66.60;99983.49;118384;1147;104475;-71
2020/12/27 08:21:38;;;;;;;19.23;9.90;;;;;;;-0.90;67.22;99987.63;118767;1147;104557;-77
2020/12/27 08:24:07;;;;;;;20.70;10.30;;;;;;;-0.87;66.68;99987.44;118585;1147;104472;-72
2020/12/27 08:26:38;;;;;;;20.33;10.13;;;;;;;-0.84;67.03;99981.20;118535;1147;104595;-76
2020/12/27 08:29:10;;;;;;;18.87;10.10;;;;;;;-0.81;66.39;99981.88;118950;1148;104447;-75
2020/12/27 08:31:39;;;;;;;17.83;8.97;;;;;;;-0.73;66.52;99988.42;118989;1147;104547;-76
2020/12/27 08:34:08;;;;;;;31.00;15.87;;;;;;;-0.68;66.71;99991.64;118936;1147;104498;-76
2020/12/27 08:36:38;;;;;;;96.03;52.37;;;;;;;-0.62;66.85;99984.28;118981;1147;104538;-75
2020/12/27 08:39:12;;;;;;;223.17;111.43;;;;;;;-0.53;66.45;99996.00;118984;1147;104552;-76
2020/12/27 08:41:49;;;;;;;87.90;45.40;;;;;;;-0.54;66.04;99986.46;118944;1147;104553;-75
2020/12/27 08:44:27;;;;;;;103.83;52.77;;;;;;;-0.50;66.52;99984.48;118937;1148;104553;-75
2020/12/27 08:46:58;;;;;;;193.00;107.45;;;;;;;-0.44;66.83;99974.50;118962;1147;104541;-77
2020/12/27 08:49:42;;;;;;;184.20;96.82;;;;;;;-0.37;66.52;99976.75;118981;1147;104815;-75
2020/12/27 08:52:20;;;;;;;241.60;120.00;;;;;;;-0.36;66.34;99970.59;118899;1147;104647;-78
2020/12/27 08:54:55;;;;;;;646.45;281.05;;;;;;;-0.35;65.98;99967.02;118712;1147;104451;-78
2020/12/27 08:57:24;;;;;;;1300.70;670.45;;;;;;;-0.33;66.51;99965.98;118554;1147;104656;-78
2020/12/27 09:00:09;;;;;;;671.10;293.55;;;;;;;-0.26;66.18;99966.48;118887;1147;104561;-79
2020/12/27 09:02:38;;;;;;;677.23;318.63;;;;;;;-0.22;65.79;99965.36;118999;1147;104473;-78
2020/12/27 09:05:09;;;;;;;416.50;208.43;;;;;;;-0.22;66.09;99965.36;118863;1147;104530;-78
2020/12/27 09:07:39;;;;;;;197.50;93.80;;;;;;;-0.18;65.93;99943.26;119013;1147;104595;-78
2020/12/27 09:10:11;;;;;;;126.33;69.17;;;;;;;-0.15;65.98;99932.59;118980;1148;104531;-78
2020/12/27 09:12:56;;;;;;;115.83;69.10;;;;;;;-0.09;65.79;99937.47;118942;1147;104503;-78
2020/12/27 09:15:27;;;;;;;82.17;47.70;;;;;;;-0.05;65.83;99928.47;118805;1147;104473;-78
2020/12/27 09:18:00;;;;;;;81.40;47.87;;;;;;;-0.01;65.74;99918.64;118985;1148;104473;-79
2020/12/27 09:20:29;;;;;;;233.90;149.63;;;;;;;0.06;66.17;99929.58;118583;1148;104704;-79
2020/12/27 09:22:58;;;;;;;143.30;83.03;;;;;;;0.11;65.49;99925.74;118823;1148;104553;-78
2020/12/27 09:25:27;;;;;;;226.45;153.30;;;;;;;0.16;65.82;99921.06;118740;1147;104550;-79
2020/12/27 09:27:56;;;;;;;115.93;62.23;;;;;;;0.26;65.77;99918.71;118621;1147;104565;-76
2020/12/27 09:30:26;;;;;;;81.83;49.70;;;;;;;0.32;65.07;99913.07;118930;1147;104558;-77
2020/12/27 09:33:01;;;;;;;88.00;60.53;;;;;;;0.35;65.74;99906.81;118955;1147;104498;-77
2020/12/27 09:35:30;;;;;;;41.83;24.23;;;;;;;0.39;65.02;99903.88;118957;1148;104518;-78
2020/12/27 09:37:58;;;;;;;47.60;31.53;;;;;;;0.44;65.22;99892.24;118679;1147;104631;-75
2020/12/27 09:40:26;;;;;;;45.75;27.75;;;;;;;0.47;65.30;99887.65;118848;1148;104541;-74
2020/12/27 09:43:03;;;;;;;33.77;21.67;;;;;;;0.54;64.65;99885.45;118896;1146;104581;-77
2020/12/27 09:45:33;;;;;;;30.03;17.70;;;;;;;0.54;65.26;99882.83;118901;1147;104450;-77
2020/12/27 09:48:03;;;;;;;23.90;14.37;;;;;;;0.58;64.94;99877.31;118992;1147;104701;-76
2020/12/27 09:50:34;;;;;;;39.67;26.17;;;;;;;0.57;65.01;99870.36;119009;1148;104495;-77
2020/12/27 09:53:03;;;;;;;33.33;19.90;;;;;;;0.62;65.10;99854.33;118998;1147;104767;-76
2020/12/27 09:55:32;;;;;;;40.23;22.73;;;;;;;0.64;65.14;99852.44;118942;1147;104545;-75
2020/12/27 09:58:00;;;;;;;32.80;18.03;;;;;;;0.69;65.22;99871.34;118445;1148;104618;-80
2020/12/27 10:00:28;;;;;;;27.97;15.17;;;;;;;0.72;64.36;99862.44;118427;1147;104568;-81
2020/12/27 10:02:57;;;;;;;26.13;14.17;;;;;;;0.71;64.03;99856.36;118398;1147;104569;-78
2020/12/27 10:05:25;;;;;;;23.55;13.45;;;;;;;0.71;64.39;99843.23;118844;1148;104520;-82
2020/12/27 10:07:53;;;;;;;24.00;12.23;;;;;;;0.73;64.72;99840.48;119090;1147;104896;-79
2020/12/27 10:10:21;;;;;;;22.00;12.40;;;;;;;0.77;64.60;99826.20;118774;1147;104464;-80
2020/12/27 10:12:49;;;;;;;26.13;15.33;;;;;;;0.75;63.99;99823.70;119075;1147;104464;-82
2020/12/27 10:15:18;;;;;;;22.90;13.70;;;;;;;0.76;62.93;99814.86;118986;1147;104476;-79
2020/12/27 10:17:46;;;;;;;24.40;13.30;;;;;;;0.77;64.10;99808.68;119011;1147;104588;-78
2020/12/27 10:20:14;;;;;;;26.00;12.60;;;;;;;0.84;64.24;99810.89;118750;1147;104553;-78
2020/12/27 10:22:42;;;;;;;32.50;13.97;;;;;;;0.84;62.99;99789.88;118767;1148;104471;-79
2020/12/27 10:25:10;;;;;;;27.50;14.40;;;;;;;0.84;64.24;99800.39;118967;1147;104452;-79
2020/12/27 10:27:38;;;;;;;20.73;10.87;;;;;;;0.89;63.97;99793.05;119001;1147;104547;-80
2020/12/27 10:30:07;;;;;;;19.43;10.43;;;;;;;0.95;64.62;99782.13;118936;1148;104569;-87
2020/12/27 10:32:35;;;;;;;17.40;9.20;;;;;;;1.01;64.08;99794.02;118998;1147;104497;-78
2020/12/27 10:35:03;;;;;;;18.67;9.80;;;;;;;1.07;63.00;99797.05;118964;1145;104518;-77
2020/12/27 10:37:31;;;;;;;18.77;9.50;;;;;;;1.08;62.73;99790.00;118976;1147;104543;-82
2020/12/27 10:40:00;;;;;;;17.53;9.57;;;;;;;1.07;64.10;99783.91;118935;1147;104561;-78
2020/12/27 10:42:28;;;;;;;15.90;7.80;;;;;;;1.12;62.49;99773.94;118785;1147;104547;-80
2020/12/27 10:44:56;;;;;;;16.13;8.27;;;;;;;1.13;62.92;99772.98;119045;1147;104541;-80
2020/12/27 10:47:24;;;;;;;14.97;7.80;;;;;;;1.12;63.71;99760.80;118979;1148;104623;-79
2020/12/27 10:49:52;;;;;;;16.90;8.43;;;;;;;1.16;63.86;99753.55;118928;1148;104618;-80
2020/12/27 10:52:20;;;;;;;21.97;10.33;;;;;;;1.21;62.82;99745.34;119028;1147;104558;-80
2020/12/27 10:54:48;;;;;;;24.20;13.73;;;;;;;1.25;64.39;99747.67;118885;1147;104506;-82
2020/12/27 10:57:16;;;;;;;27.45;12.30;;;;;;;1.27;63.21;99734.40;118786;1148;104547;-80
2020/12/27 10:59:44;;;;;;;35.30;15.03;;;;;;;1.28;63.20;99731.67;118990;1147;104569;-82
2020/12/27 11:02:12;;;;;;;35.17;14.10;;;;;;;1.29;63.35;99732.50;118660;1147;104506;-81
2020/12/27 11:04:42;;;;;;;31.07;13.03;;;;;;;1.26;63.40;99727.48;118727;1147;104558;-81
2020/12/27 11:07:10;;;;;;;30.17;11.83;;;;;;;1.27;62.34;99724.75;118875;1147;104634;-81
2020/12/27 11:09:38;;;;;;;26.10;11.63;;;;;;;1.29;63.01;99708.84;118833;1145;104562;-84
2020/12/27 11:12:06;;;;;;;52.37;23.73;;;;;;;1.27;62.72;99716.00;118961;1148;104553;-84
2020/12/27 11:14:35;;;;;;;29.70;14.40;;;;;;;1.28;61.50;99708.02;118989;1147;104407;-82
2020/12/27 11:17:03;;;;;;;28.40;14.60;;;;;;;1.30;63.29;99702.66;118675;1147;104513;-81
2020/12/27 11:19:31;;;;;;;22.40;10.47;;;;;;;1.32;61.25;99692.88;118881;1148;104664;-83
2020/12/27 11:21:59;;;;;;;26.30;13.17;;;;;;;1.32;63.21;99698.13;119057;1147;104535;-77
2020/12/27 11:24:27;;;;;;;22.53;9.70;;;;;;;1.35;62.68;99690.05;118938;1148;104563;-77
2020/12/27 11:26:55;;;;;;;24.57;12.00;;;;;;;1.37;61.52;99673.20;118982;1147;104612;-82